Time;durP1;ratioP1;P1;durP2;ratioP2;P2;SDS_P1;SDS_P2;PMS_P1;PMS_P2;Temp;Humidity;BMP_temperature;BMP_pressure;BME280_temperature;BME280_humidity;BME280_pressure;Samples;Min_cycle;Max_cycle;Signal;HPM_P1;HPM_P2
2022/05/12 00:02:06;;;;;;;3.57;2.50;;;;;;;20.61;57.08;99128.88;5072598;28;20459;-76
2022/05/12 00:04:35;;;;;;;3.27;2.97;;;;;;;20.54;57.64;99126.94;5072919;28;20423;-78
2022/05/12 00:07:01;;;;;;;6.00;3.33;;;;;;;20.45;58.39;99128.78;5072356;28;20439;-77
2022/05/12 00:09:28;;;;;;;3.70;3.10;;;;;;;20.37;58.94;99128.72;5072277;28;20434;-78
2022/05/12 00:11:57;;;;;;;3.87;2.93;;;;;;;20.33;59.41;99132.81;5072337;28;20748;-77
2022/05/12 00:14:23;;;;;;;5.07;3.50;;;;;;;20.25;59.92;99135.50;5072440;28;20423;-77
2022/05/12 00:16:50;;;;;;;5.40;2.70;;;;;;;20.26;60.20;99149.03;5072058;28;20466;-77
2022/05/12 00:19:17;;;;;;;6.27;2.90;;;;;;;20.13;60.80;99154.91;5072607;28;20423;-78
2022/05/12 00:21:44;;;;;;;5.00;2.90;;;;;;;20.15;60.97;99165.69;5072002;28;20955;-77
2022/05/12 00:24:11;;;;;;;4.43;2.63;;;;;;;20.15;60.94;99169.28;5072264;28;20541;-78
2022/05/12 00:26:38;;;;;;;4.47;3.30;;;;;;;20.08;61.27;99168.22;5072272;28;20411;-77
2022/05/12 00:29:08;;;;;;;5.53;2.90;;;;;;;20.04;61.76;99168.69;5072391;28;20519;-78
2022/05/12 00:31:36;;;;;;;5.07;2.73;;;;;;;20.17;61.37;99177.28;5071576;28;20442;-78
2022/05/12 00:34:04;;;;;;;4.90;3.00;;;;;;;19.97;62.22;99176.66;5070998;28;20457;-78
2022/05/12 00:36:31;;;;;;;4.17;2.57;;;;;;;20.03;62.37;99180.63;5071817;28;20482;-78
2022/05/12 00:38:58;;;;;;;3.80;3.40;;;;;;;20.02;63.03;99189.84;5072130;28;20427;-78
2022/05/12 00:41:24;;;;;;;2.80;2.60;;;;;;;19.98;63.08;99187.41;5072011;28;20438;-78
2022/05/12 00:43:53;;;;;;;3.90;2.40;;;;;;;19.92;63.56;99184.47;5072065;28;20767;-77
2022/05/12 00:46:23;;;;;;;7.03;2.90;;;;;;;19.98;63.48;99184.69;5072176;28;20913;-76
2022/05/12 00:48:51;;;;;;;3.27;2.90;;;;;;;19.90;64.02;99190.09;5072138;28;20438;-77
2022/05/12 00:51:22;;;;;;;4.90;2.60;;;;;;;19.89;64.45;99196.56;5071776;28;20482;-76
2022/05/12 00:53:52;;;;;;;4.80;2.50;;;;;;;19.88;64.62;99194.88;5072124;28;20520;-77
2022/05/12 00:56:22;;;;;;;3.70;2.77;;;;;;;19.70;65.97;99207.69;5071667;28;20474;-78
2022/05/12 00:58:50;;;;;;;4.90;2.70;;;;;;;19.77;65.43;99206.91;5072262;28;20988;-78
2022/05/12 01:01:17;;;;;;;4.13;2.50;;;;;;;19.72;65.97;99208.41;5071620;28;20959;-77
2022/05/12 01:03:46;;;;;;;4.00;2.30;;;;;;;19.51;67.28;99211.38;5071627;28;20427;-77
2022/05/12 01:06:14;;;;;;;4.53;2.47;;;;;;;19.37;68.71;99218.25;5071922;28;20510;-77
2022/05/12 01:08:41;;;;;;;5.93;2.55;;;;;;;19.36;68.86;99216.56;5075906;28;20449;-78
2022/05/12 01:11:13;;;;;;;3.43;2.70;;;;;;;19.25;69.84;99219.50;5085756;28;20197;-78
2022/05/12 01:13:40;;;;;;;2.97;2.33;;;;;;;19.09;71.11;99228.38;5079042;28;20901;-79
2022/05/12 01:16:07;;;;;;;5.50;2.87;;;;;;;19.19;70.73;99218.22;5075903;28;20581;-77
2022/05/12 01:18:39;;;;;;;3.78;2.50;;;;;;;19.15;71.27;99225.00;5075554;28;20431;-76
2022/05/12 01:21:08;;;;;;;5.68;2.10;;;;;;;19.17;71.48;99228.44;5075571;28;20191;-77
2022/05/12 01:23:38;;;;;;;3.47;2.30;;;;;;;19.10;72.31;99232.78;5075685;28;20637;-76
2022/05/12 01:26:07;;;;;;;2.55;2.05;;;;;;;19.08;72.47;99219.28;5075750;28;20426;-78
2022/05/12 01:28:34;;;;;;;3.20;2.23;;;;;;;19.16;72.39;99230.31;5075322;28;20180;-78
2022/05/12 01:31:01;;;;;;;7.47;2.33;;;;;;;19.03;73.72;99234.41;5074858;28;20450;-77
2022/05/12 01:33:29;;;;;;;3.53;2.40;;;;;;;18.96;74.27;99237.75;5075208;28;20426;-78
2022/05/12 01:35:56;;;;;;;2.57;2.30;;;;;;;18.88;75.21;99234.94;5075143;28;20510;-78
2022/05/12 01:38:23;;;;;;;4.90;2.15;;;;;;;18.84;75.77;99232.66;5074401;28;20537;-78
2022/05/12 01:40:52;;;;;;;3.72;1.90;;;;;;;18.82;76.14;99230.06;5075330;28;20181;-78
2022/05/12 01:43:19;;;;;;;2.92;1.80;;;;;;;18.79;76.91;99237.69;5075414;28;20184;-77
2022/05/12 01:45:46;;;;;;;3.85;2.22;;;;;;;18.79;76.99;99244.03;5074869;28;20298;-76
2022/05/12 01:48:14;;;;;;;5.85;2.00;;;;;;;18.69;77.83;99252.19;5074925;28;20186;-77
2022/05/12 01:50:43;;;;;;;3.58;2.00;;;;;;;18.76;77.29;99244.28;5074754;28;20591;-77
2022/05/12 01:53:10;;;;;;;3.05;2.20;;;;;;;18.65;78.27;99239.84;5074887;28;20198;-77
2022/05/12 01:55:37;;;;;;;7.28;2.30;;;;;;;18.80;77.24;99247.59;5074997;28;20188;-78
2022/05/12 01:58:06;;;;;;;7.78;2.17;;;;;;;18.79;77.26;99254.94;5075021;28;20654;-77
2022/05/12 02:00:33;;;;;;;2.08;1.60;;;;;;;18.71;78.09;99257.50;5074639;28;20294;-77
2022/05/12 02:03:01;;;;;;;2.47;1.95;;;;;;;18.67;78.52;99261.53;5074712;28;20184;-77
2022/05/12 02:05:28;;;;;;;2.63;2.20;;;;;;;18.54;79.36;99270.03;5074651;28;20189;-78
2022/05/12 02:07:55;;;;;;;4.18;2.28;;;;;;;18.73;78.33;99269.97;5075150;28;20196;-77
2022/05/12 02:10:26;;;;;;;2.75;2.55;;;;;;;18.71;78.54;99276.59;5074392;28;20245;-77
2022/05/12 02:12:53;;;;;;;3.95;2.10;;;;;;;18.55;79.49;99278.06;5074855;28;20195;-77
2022/05/12 02:15:21;;;;;;;3.45;2.10;;;;;;;18.42;80.50;99284.84;5074959;28;20663;-77
2022/05/12 02:17:49;;;;;;;3.75;2.67;;;;;;;18.31;81.71;99285.88;5073968;28;20212;-77
2022/05/12 02:20:18;;;;;;;6.13;2.50;;;;;;;18.47;80.43;99286.13;5073281;28;20201;-77
2022/05/12 02:22:45;;;;;;;5.25;2.78;;;;;;;18.37;81.65;99282.56;5074489;28;20207;-77
2022/05/12 02:25:12;;;;;;;3.13;2.22;;;;;;;18.35;81.35;99292.75;5074662;28;20210;-77
2022/05/12 02:27:42;;;;;;;2.90;2.30;;;;;;;18.19;82.80;99287.91;5074576;28;20200;-77
2022/05/12 02:30:11;;;;;;;3.42;2.33;;;;;;;18.06;84.25;99299.09;5074331;28;20194;-76
2022/05/12 02:32:39;;;;;;;2.80;2.50;;;;;;;18.10;84.41;99305.97;5074646;28;20234;-76
2022/05/12 02:35:07;;;;;;;4.15;3.00;;;;;;;17.96;85.50;99306.44;5074017;28;20625;-78
2022/05/12 02:37:34;;;;;;;4.32;3.00;;;;;;;17.86;86.35;99308.28;5074598;28;20229;-77
2022/05/12 02:40:00;;;;;;;4.18;3.38;;;;;;;17.77;87.20;99304.50;5073132;28;20196;-78
2022/05/12 02:42:27;;;;;;;4.30;3.38;;;;;;;17.79;87.27;99307.94;5074680;28;20607;-77
2022/05/12 02:44:54;;;;;;;3.70;2.38;;;;;;;17.84;87.16;99308.44;5074481;28;20204;-76
2022/05/12 02:47:20;;;;;;;4.50;2.58;;;;;;;17.86;87.20;99314.59;5073735;28;20193;-76
2022/05/12 02:49:49;;;;;;;3.30;2.47;;;;;;;17.82;87.41;99310.44;5073992;28;20207;-78
2022/05/12 02:52:16;;;;;;;4.95;2.70;;;;;;;17.71;88.66;99310.53;5074233;28;20608;-78
2022/05/12 02:54:43;;;;;;;3.50;2.58;;;;;;;17.79;88.50;99318.00;5073967;28;20277;-77
2022/05/12 02:57:09;;;;;;;4.55;2.72;;;;;;;17.71;89.17;99322.28;5073626;28;20201;-78
2022/05/12 02:59:37;;;;;;;3.05;2.60;;;;;;;17.91;87.71;99323.19;5073428;28;20709;-77
2022/05/12 03:02:05;;;;;;;3.40;2.80;;;;;;;17.81;88.73;99333.22;5074216;28;20195;-77
2022/05/12 03:04:31;;;;;;;3.95;2.42;;;;;;;17.87;88.73;99327.22;5074131;28;20194;-77
2022/05/12 03:06:59;;;;;;;3.30;2.85;;;;;;;17.71;90.30;99343.22;5074018;28;20205;-77
2022/05/12 03:09:26;;;;;;;4.25;2.78;;;;;;;17.78;90.14;99338.06;5073625;28;20278;-78
2022/05/12 03:11:53;;;;;;;5.60;2.70;;;;;;;17.91;89.23;99338.69;5073636;28;20198;-78
2022/05/12 03:14:19;;;;;;;3.65;2.53;;;;;;;17.90;89.30;99342.41;5072965;28;20198;-77
2022/05/12 03:16:46;;;;;;;2.38;2.17;;;;;;;17.92;89.14;99345.84;5074085;28;20655;-77
2022/05/12 03:19:14;;;;;;;2.78;2.40;;;;;;;17.83;90.41;99350.28;5073156;28;20194;-77
2022/05/12 03:21:41;;;;;;;3.63;2.40;;;;;;;17.77;91.06;99349.94;5059731;28;20254;-77
2022/05/12 03:24:10;;;;;;;2.75;2.15;;;;;;;17.78;91.12;99355.25;5053780;28;20549;-77
2022/05/12 03:26:36;;;;;;;2.95;2.63;;;;;;;17.74;92.13;99361.13;5072487;28;20652;-78
2022/05/12 03:29:03;;;;;;;2.40;2.10;;;;;;;17.71;92.45;99349.50;5072494;28;20188;-78
2022/05/12 03:31:30;;;;;;;5.43;3.03;;;;;;;17.59;93.57;99361.53;5072223;28;20285;-77
2022/05/12 03:33:56;;;;;;;3.80;2.67;;;;;;;17.48;95.08;99364.38;5073375;28;20213;-77
2022/05/12 03:36:23;;;;;;;2.88;2.67;;;;;;;17.50;95.33;99371.41;5073602;28;20187;-77
2022/05/12 03:38:49;;;;;;;3.47;2.47;;;;;;;17.36;96.86;99370.91;5072823;28;20221;-78
2022/05/12 03:41:17;;;;;;;2.80;2.40;;;;;;;17.36;96.97;99366.31;5072973;28;20188;-76
2022/05/12 03:46:30;;;;;;;3.05;2.40;;;;;;;17.38;97.62;99379.81;5073023;28;20633;-77
2022/05/12 03:48:57;;;;;;;3.05;2.78;;;;;;;17.34;97.85;99383.78;5073082;28;20275;-77
2022/05/12 03:51:24;;;;;;;4.20;2.70;;;;;;;17.35;98.17;99383.66;5072547;28;20249;-78
2022/05/12 03:53:50;;;;;;;3.92;2.53;;;;;;;17.26;98.95;99393.50;5072880;28;20189;-77
2022/05/12 03:56:18;;;;;;;5.13;2.60;;;;;;;17.29;98.52;99392.38;5072690;28;20215;-77
2022/05/12 03:58:45;;;;;;;4.88;2.72;;;;;;;17.25;99.22;99390.91;5072916;28;20231;-77
2022/05/12 04:01:12;;;;;;;3.72;2.50;;;;;;;17.25;99.20;99401.78;5072943;28;20508;-77
2022/05/12 04:03:38;;;;;;;2.75;2.45;;;;;;;17.22;99.72;99402.94;5071753;28;20555;-78
2022/05/12 04:06:07;;;;;;;2.85;2.50;;;;;;;17.30;98.83;99400.41;5072852;28;20189;-77
2022/05/12 04:08:34;;;;;;;3.78;2.00;;;;;;;17.26;99.02;99403.53;5071525;28;20554;-77
2022/05/12 04:11:01;;;;;;;2.85;2.50;;;;;;;17.17;100.00;99410.66;5071960;28;20231;-77
2022/05/12 04:13:29;;;;;;;4.25;2.25;;;;;;;17.22;100.00;99413.81;5071649;28;20550;-76
2022/05/12 04:15:56;;;;;;;5.78;2.63;;;;;;;17.27;100.00;99421.56;5072266;28;20199;-76
2022/05/12 04:18:23;;;;;;;3.03;2.40;;;;;;;17.33;99.11;99420.19;5072541;28;20221;-77
2022/05/12 04:20:49;;;;;;;2.70;2.30;;;;;;;17.20;100.00;99420.41;5085877;28;20197;-77
2022/05/12 04:23:16;;;;;;;6.00;3.03;;;;;;;17.21;100.00;99422.13;5092447;28;20226;-76
2022/05/12 04:25:42;;;;;;;4.18;2.40;;;;;;;17.28;99.96;99423.31;5092394;28;20185;-78
2022/05/12 04:28:09;;;;;;;3.50;2.75;;;;;;;17.17;100.00;99421.53;5092503;28;20229;-77
2022/05/12 04:30:38;;;;;;;4.10;2.60;;;;;;;17.32;98.65;99429.31;5078238;28;20187;-76
2022/05/12 04:35:49;;;;;;;3.53;2.78;;;;;;;17.24;99.91;99447.19;5071452;28;20251;-78
2022/05/12 04:38:17;;;;;;;5.18;2.80;;;;;;;17.18;100.00;99447.72;5072542;28;20204;-77
2022/05/12 04:40:44;;;;;;;3.45;2.50;;;;;;;17.30;99.90;99452.09;5072267;28;20557;-77
2022/05/12 04:43:10;;;;;;;4.40;2.90;;;;;;;17.31;99.99;99450.25;5072148;28;20535;-77
2022/05/12 04:45:38;;;;;;;4.85;2.90;;;;;;;17.33;99.84;99448.25;5071696;28;20199;-77
2022/05/12 04:48:07;;;;;;;7.10;2.58;;;;;;;17.47;98.00;99461.47;5071679;28;20208;-77
2022/05/12 04:50:36;;;;;;;5.18;3.10;;;;;;;17.30;100.00;99470.31;5071693;28;20241;-75
2022/05/12 04:53:05;;;;;;;5.57;2.90;;;;;;;17.23;100.00;99475.41;5072112;28;20208;-75
2022/05/12 04:55:33;;;;;;;5.90;3.00;;;;;;;17.08;100.00;99471.31;5071779;28;20246;-77
2022/05/12 04:58:00;;;;;;;3.92;3.38;;;;;;;17.16;100.00;99476.06;5056242;28;20209;-78
2022/05/12 05:00:31;;;;;;;4.97;3.25;;;;;;;17.23;100.00;99480.84;5051626;28;20282;-77
2022/05/12 05:02:59;;;;;;;5.85;3.22;;;;;;;17.13;100.00;99484.50;5052380;28;20185;-77
2022/05/12 05:05:26;;;;;;;4.13;3.22;;;;;;;17.07;100.00;99492.22;5051830;28;20660;-77
2022/05/12 05:07:55;;;;;;;7.45;3.20;;;;;;;17.01;100.00;99492.75;5052128;28;20181;-78
2022/05/12 05:10:23;;;;;;;4.15;2.80;;;;;;;17.11;100.00;99492.78;5055790;28;20177;-78
2022/05/12 05:12:50;;;;;;;6.18;3.30;;;;;;;17.23;100.00;99497.19;5070493;28;20638;-77
2022/05/12 05:15:18;;;;;;;4.90;3.10;;;;;;;17.19;100.00;99495.72;5071529;28;20218;-77
2022/05/12 05:17:45;;;;;;;5.35;2.75;;;;;;;17.53;96.83;99508.22;5071673;28;20212;-78
2022/05/12 05:20:18;;;;;;;6.70;3.08;;;;;;;17.43;95.32;99513.59;5071852;28;20198;-77
2022/05/12 05:22:45;;;;;;;4.30;2.30;;;;;;;17.38;94.57;99514.00;5063263;28;20193;-78
2022/05/12 05:25:12;;;;;;;4.07;2.13;;;;;;;17.54;93.54;99515.38;5058689;28;20188;-78
2022/05/12 05:27:39;;;;;;;4.63;2.10;;;;;;;17.51;92.48;99517.38;5071624;28;20545;-78
2022/05/12 05:30:09;;;;;;;3.92;2.20;;;;;;;17.52;91.29;99520.94;5071504;28;20263;-78
2022/05/12 05:32:36;;;;;;;3.28;2.15;;;;;;;17.53;91.30;99530.84;5071372;28;20268;-79
2022/05/12 05:35:04;;;;;;;3.72;2.35;;;;;;;17.63;89.36;99534.47;5071203;28;20236;-79
2022/05/12 05:37:32;;;;;;;7.10;3.03;;;;;;;17.54;88.92;99540.75;5070985;28;20201;-76
2022/05/12 05:39:58;;;;;;;6.53;2.55;;;;;;;17.61;89.06;99546.50;5070988;28;20196;-76
2022/05/12 05:42:25;;;;;;;5.10;2.38;;;;;;;17.54;90.14;99548.91;5071143;28;20204;-79
2022/05/12 05:44:52;;;;;;;4.18;2.45;;;;;;;17.45;90.67;99538.81;5070739;28;20191;-76
2022/05/12 05:47:19;;;;;;;3.63;2.50;;;;;;;17.66;89.27;99557.84;5070552;28;20226;-75
2022/05/12 05:49:46;;;;;;;4.75;2.55;;;;;;;17.80;87.55;99553.94;5070340;28;20390;-76
2022/05/12 05:54:57;;;;;;;4.05;2.20;;;;;;;17.15;91.86;99567.72;5073267;28;20648;-75
2022/05/12 05:57:26;;;;;;;3.13;2.10;;;;;;;17.12;92.61;99568.00;5074244;28;20189;-74
2022/05/12 05:59:53;;;;;;;9.27;2.60;;;;;;;17.07;93.01;99578.38;5074153;28;20201;-75
2022/05/12 06:02:20;;;;;;;5.43;2.28;;;;;;;17.28;91.65;99571.09;5074458;28;20571;-76
2022/05/12 06:04:47;;;;;;;6.95;2.42;;;;;;;17.43;90.85;99581.66;5074132;28;20245;-75
2022/05/12 06:07:14;;;;;;;6.53;3.42;;;;;;;17.31;91.42;99575.41;5074058;28;20276;-75
2022/05/12 06:09:41;;;;;;;7.40;2.58;;;;;;;17.60;88.83;99586.50;5073894;28;20193;-75
2022/05/12 06:12:10;;;;;;;6.68;2.60;;;;;;;17.60;88.35;99594.66;5074076;28;20216;-74
2022/05/12 06:14:38;;;;;;;6.40;2.30;;;;;;;17.41;88.42;99589.06;5074268;28;20544;-75
2022/05/12 06:17:05;;;;;;;6.65;2.95;;;;;;;17.46;87.97;99593.16;5073711;28;20195;-75
2022/05/12 06:19:32;;;;;;;5.72;2.50;;;;;;;17.49;87.28;99594.72;5073775;28;20579;-75
2022/05/12 06:22:00;;;;;;;9.18;3.03;;;;;;;17.45;87.90;99598.72;5073544;28;20291;-75
2022/05/12 06:24:26;;;;;;;6.20;2.75;;;;;;;17.70;86.18;99609.19;5073727;28;20188;-74
2022/05/12 06:26:53;;;;;;;4.22;2.58;;;;;;;17.95;84.23;99606.19;5073654;28;20205;-74
2022/05/12 06:29:21;;;;;;;6.40;2.58;;;;;;;18.03;83.25;99604.50;5073595;28;20189;-74
2022/05/12 06:31:48;;;;;;;4.43;2.38;;;;;;;18.13;81.73;99612.72;5073412;28;20630;-75
2022/05/12 06:34:15;;;;;;;4.82;2.17;;;;;;;18.00;82.92;99607.53;5072747;28;20201;-73
2022/05/12 06:36:41;;;;;;;3.13;2.00;;;;;;;17.86;84.00;99605.13;5073668;28;20193;-75
2022/05/12 06:39:08;;;;;;;3.22;2.40;;;;;;;17.96;83.23;99610.66;5073245;28;20211;-75
2022/05/12 06:41:35;;;;;;;4.18;2.30;;;;;;;18.11;82.28;99603.81;5073430;28;20203;-75
2022/05/12 06:44:02;;;;;;;5.35;2.63;;;;;;;18.37;80.15;99616.97;5073383;28;20200;-74
2022/05/12 06:46:30;;;;;;;4.35;1.95;;;;;;;18.10;82.41;99616.59;5073775;28;20586;-76
2022/05/12 06:48:57;;;;;;;7.18;2.50;;;;;;;17.91;83.89;99608.34;5073770;28;20548;-75
2022/05/12 06:51:24;;;;;;;4.03;2.30;;;;;;;18.03;82.68;99618.13;5073065;28;20586;-75
2022/05/12 06:53:51;;;;;;;6.65;2.58;;;;;;;18.22;81.70;99613.75;5073396;28;20187;-75
2022/05/12 06:56:18;;;;;;;6.50;2.92;;;;;;;18.29;80.05;99629.44;5073268;28;20211;-74
2022/05/12 06:58:44;;;;;;;5.57;2.30;;;;;;;18.21;81.08;99623.81;5072920;28;20241;-75
2022/05/12 07:01:12;;;;;;;4.05;2.20;;;;;;;18.32;80.36;99622.84;5073304;28;20667;-75
2022/05/12 07:03:40;;;;;;;5.47;2.53;;;;;;;18.47;80.45;99635.06;5072942;28;20187;-74
2022/05/12 07:06:07;;;;;;;6.18;2.70;;;;;;;18.91;76.72;99622.00;5072738;28;20186;-75
2022/05/12 07:08:40;;;;;;;5.82;2.15;;;;;;;18.97;74.49;99623.28;5073361;28;20537;-75
2022/05/12 07:11:07;;;;;;;4.93;2.40;;;;;;;19.27;73.16;99633.22;5072710;28;20191;-75
2022/05/12 07:13:33;;;;;;;4.15;2.47;;;;;;;19.21;72.92;99639.25;5072908;28;20187;-75
2022/05/12 07:16:01;;;;;;;3.35;2.13;;;;;;;19.11;74.59;99639.25;5072948;28;20210;-74
2022/05/12 07:18:28;;;;;;;3.03;2.30;;;;;;;18.85;74.18;99643.53;5072872;28;20212;-74
2022/05/12 07:26:36;;;;;;;11.38;7.13;;;;;;;18.92;75.99;99648.25;5072544;28;20675;-75
2022/05/12 07:29:03;;;;;;;3.78;2.70;;;;;;;19.00;74.28;99646.72;5072628;28;20522;-75
2022/05/12 07:31:30;;;;;;;6.35;2.25;;;;;;;19.13;73.61;99644.53;5072680;28;20199;-74
2022/05/12 07:33:57;;;;;;;6.35;2.17;;;;;;;18.91;74.27;99653.88;5072506;28;20187;-75
2022/05/12 07:36:27;;;;;;;3.55;2.10;;;;;;;18.76;75.31;99650.66;5072339;28;20234;-74
2022/05/12 07:38:55;;;;;;;7.47;2.30;;;;;;;18.71;75.31;99653.81;5072291;28;20679;-75
2022/05/12 07:41:22;;;;;;;7.07;3.03;;;;;;;18.37;77.47;99656.00;5072356;28;20712;-74
2022/05/12 07:43:51;;;;;;;6.18;2.30;;;;;;;18.54;76.40;99651.72;5072021;28;20195;-74
2022/05/12 07:46:21;;;;;;;3.80;2.10;;;;;;;18.70;75.57;99653.94;5072067;28;20200;-76
2022/05/12 07:48:48;;;;;;;3.97;2.30;;;;;;;18.49;76.51;99665.78;5072227;28;20561;-74
2022/05/12 07:51:17;;;;;;;4.25;2.03;;;;;;;18.24;78.90;99660.81;5071788;28;20230;-74
2022/05/12 07:53:47;;;;;;;7.53;2.40;;;;;;;18.88;75.14;99662.34;5072121;28;20233;-75
2022/05/12 07:56:15;;;;;;;4.95;2.40;;;;;;;18.95;74.68;99671.69;5072086;28;20203;-75
2022/05/12 07:58:42;;;;;;;9.43;2.13;;;;;;;19.23;73.59;99670.00;5071997;28;20303;-74
2022/05/12 08:01:10;;;;;;;5.10;2.65;;;;;;;19.49;72.10;99677.59;5072014;28;20287;-76
2022/05/12 08:03:37;;;;;;;3.45;1.98;;;;;;;19.71;70.52;99679.19;5071646;28;20274;-74
2022/05/12 08:06:04;;;;;;;2.60;1.60;;;;;;;20.09;65.30;99682.88;5071536;28;20188;-75
2022/05/12 08:08:31;;;;;;;5.73;2.27;;;;;;;20.09;66.48;99693.81;5071886;28;20419;-74
2022/05/12 08:10:59;;;;;;;4.47;1.90;;;;;;;20.17;65.27;99686.59;5071830;28;20434;-75
2022/05/12 08:13:26;;;;;;;2.87;1.80;;;;;;;20.00;64.27;99684.63;5071618;28;20522;-74
2022/05/12 08:15:53;;;;;;;6.40;2.47;;;;;;;19.80;65.09;99694.72;5071678;28;20932;-75
2022/05/12 08:18:22;;;;;;;5.43;2.23;;;;;;;19.82;64.39;99692.69;5071179;28;20476;-75
2022/05/12 08:20:50;;;;;;;2.20;1.60;;;;;;;19.51;63.50;99697.44;5071664;28;20542;-75
2022/05/12 08:23:17;;;;;;;2.08;1.30;;;;;;;19.51;63.26;99694.69;5071257;28;20509;-73
2022/05/12 08:25:45;;;;;;;2.17;1.50;;;;;;;19.63;63.53;99687.22;5071387;28;20531;-74
2022/05/12 08:28:17;;;;;;;3.60;1.77;;;;;;;20.29;60.24;99697.34;5071624;28;20184;-75
2022/05/12 08:30:44;;;;;;;4.63;1.60;;;;;;;20.52;56.69;99697.81;5071538;28;20196;-75
2022/05/12 08:33:12;;;;;;;3.60;1.47;;;;;;;20.53;56.35;99700.41;5071615;28;20827;-74
2022/05/12 08:35:39;;;;;;;4.50;1.40;;;;;;;19.51;59.28;99684.63;5071561;28;20773;-75
2022/05/12 08:38:07;;;;;;;4.03;1.60;;;;;;;19.77;58.75;99689.56;5071068;28;20441;-75
2022/05/12 08:40:41;;;;;;;3.50;1.50;;;;;;;19.87;58.53;99684.91;5071253;28;20403;-75
2022/05/12 08:43:14;;;;;;;5.03;1.73;;;;;;;19.95;58.87;99685.06;5071309;28;20434;-75
2022/05/12 08:45:43;;;;;;;3.27;1.27;;;;;;;20.17;58.74;99685.69;5071390;28;20429;-76
2022/05/12 08:48:12;;;;;;;3.80;1.50;;;;;;;20.21;58.67;99692.59;5071263;28;20499;-73
2022/05/12 08:50:40;;;;;;;3.83;1.60;;;;;;;20.50;57.09;99686.16;5071128;28;20466;-75
2022/05/12 08:53:13;;;;;;;2.07;1.50;;;;;;;20.59;56.47;99686.16;5071507;28;20437;-74
2022/05/12 08:55:45;;;;;;;2.60;1.50;;;;;;;21.29;54.18;99691.06;5071406;28;20425;-75
2022/05/12 08:58:21;;;;;;;2.73;1.30;;;;;;;21.26;53.79;99694.09;5071058;28;20507;-74
2022/05/12 09:00:59;;;;;;;3.57;1.70;;;;;;;21.23;54.51;99695.28;5071111;28;20480;-74
2022/05/12 09:03:39;;;;;;;2.13;1.30;;;;;;;21.48;53.13;99687.31;5071086;28;20426;-76
2022/05/12 09:06:10;;;;;;;2.33;1.47;;;;;;;21.02;55.34;99692.81;5071234;28;20461;-74
2022/05/12 09:08:47;;;;;;;5.27;1.63;;;;;;;21.17;55.51;99684.09;5071018;28;20431;-73
2022/05/12 09:11:21;;;;;;;2.30;1.83;;;;;;;21.04;55.13;99690.78;5071280;28;20423;-75
2022/05/12 09:13:49;;;;;;;3.27;1.57;;;;;;;21.12;55.09;99697.38;5071325;28;20502;-75
2022/05/12 09:16:22;;;;;;;10.17;1.80;;;;;;;21.02;55.69;99684.59;5071234;28;20972;-74
2022/05/12 09:18:49;;;;;;;5.10;1.47;;;;;;;20.94;56.38;99689.13;5071017;28;20941;-75
2022/05/12 09:21:18;;;;;;;3.10;1.43;;;;;;;20.95;55.78;99682.66;5071000;28;20496;-75
2022/05/12 09:23:45;;;;;;;2.97;1.40;;;;;;;21.09;54.33;99690.31;5071023;28;20806;-75
2022/05/12 09:26:42;;;;;;;3.90;2.27;;;;;;;21.62;53.29;99680.44;5070889;28;20432;-76
2022/05/12 09:29:14;;;;;;;4.20;1.70;;;;;;;20.92;54.91;99686.56;5073651;28;20510;-75
2022/05/12 09:31:45;;;;;;;3.17;1.57;;;;;;;20.68;56.80;99681.66;5074221;28;20415;-74
2022/05/12 09:34:17;;;;;;;5.87;1.70;;;;;;;21.45;54.22;99677.53;5075037;28;20468;-76
2022/05/12 09:36:43;;;;;;;4.50;2.00;;;;;;;21.90;53.21;99678.44;5074399;28;20510;-75
2022/05/12 09:39:10;;;;;;;5.87;2.43;;;;;;;21.83;53.17;99683.69;5074644;28;20482;-75
2022/05/12 09:41:40;;;;;;;4.13;2.07;;;;;;;21.36;55.28;99672.97;5074615;28;20772;-74
2022/05/12 09:44:22;;;;;;;4.40;1.80;;;;;;;21.36;55.40;99678.44;5074694;28;20830;-74
2022/05/12 09:46:59;;;;;;;2.60;1.40;;;;;;;21.56;54.80;99676.44;5074874;28;20431;-75
2022/05/12 09:49:32;;;;;;;4.03;2.03;;;;;;;21.65;54.32;99678.22;5073965;28;20458;-75
2022/05/12 09:52:18;;;;;;;4.53;2.10;;;;;;;21.90;53.85;99672.94;5074031;28;21014;-76
2022/05/12 09:54:46;;;;;;;5.97;2.03;;;;;;;21.83;54.14;99682.84;5074172;28;20861;-75
2022/05/12 09:57:17;;;;;;;3.83;2.07;;;;;;;21.74;55.17;99681.91;5074235;28;20419;-75
2022/05/12 09:59:51;;;;;;;4.90;2.10;;;;;;;21.58;56.01;99668.94;5074146;28;20462;-74
2022/05/12 10:08:18;;;;;;;8.07;3.93;;;;;;;22.92;51.77;99663.03;5074267;28;20410;-76
2022/05/12 10:10:47;;;;;;;4.67;2.20;;;;;;;22.66;52.45;99672.22;5073885;28;20426;-75
2022/05/12 10:13:24;;;;;;;3.43;1.93;;;;;;;22.76;51.88;99662.97;5073230;28;20439;-75
2022/05/12 10:15:55;;;;;;;4.90;2.00;;;;;;;22.93;52.34;99659.28;5074547;28;20419;-76
2022/05/12 10:18:31;;;;;;;5.27;2.50;;;;;;;23.53;50.05;99653.53;5073876;28;20427;-76
2022/05/12 10:21:07;;;;;;;3.60;1.77;;;;;;;23.34;50.22;99651.13;5074214;28;20488;-74
2022/05/12 10:23:42;;;;;;;3.50;2.23;;;;;;;22.97;51.68;99666.13;5074336;28;20893;-76
2022/05/12 10:26:13;;;;;;;3.93;1.83;;;;;;;23.52;49.85;99651.81;5073887;28;20484;-75
2022/05/12 10:28:50;;;;;;;3.63;2.07;;;;;;;22.71;52.10;99659.88;5073931;28;20426;-76
2022/05/12 10:31:27;;;;;;;4.23;3.20;;;;;;;23.32;51.19;99644.94;5068799;28;20450;-76
2022/05/12 10:34:22;;;;;;;6.60;2.10;;;;;;;23.49;48.85;99652.19;5053221;28;20432;-76
2022/05/12 10:36:55;;;;;;;5.20;2.13;;;;;;;23.80;49.58;99647.91;5053234;28;20532;-75
2022/05/12 10:39:29;;;;;;;6.37;2.60;;;;;;;23.77;48.08;99660.09;5052235;28;20472;-75
2022/05/12 10:42:13;;;;;;;4.00;1.73;;;;;;;23.34;50.13;99642.00;5073673;28;20426;-74
2022/05/12 10:44:55;;;;;;;5.70;2.13;;;;;;;23.38;49.86;99647.03;5081517;28;20439;-75
2022/05/12 10:47:36;;;;;;;7.90;2.83;;;;;;;23.23;50.17;99651.47;5072721;28;20427;-75
2022/05/12 10:50:15;;;;;;;3.10;2.20;;;;;;;23.67;49.05;99649.22;5072588;28;20551;-75
2022/05/12 10:52:51;;;;;;;6.17;2.67;;;;;;;23.34;49.27;99653.88;5072987;28;20518;-75
2022/05/12 10:55:28;;;;;;;3.43;1.83;;;;;;;23.34;50.00;99644.75;5072671;28;20447;-75
2022/05/12 10:58:05;;;;;;;5.70;2.23;;;;;;;22.44;53.77;99639.88;5072609;28;20488;-74
2022/05/12 11:00:50;;;;;;;3.20;1.97;;;;;;;21.88;55.50;99636.59;5072521;28;20462;-75
2022/05/12 11:03:24;;;;;;;2.90;2.00;;;;;;;21.62;56.06;99634.72;5072825;28;20427;-74
2022/05/12 11:05:56;;;;;;;4.80;2.60;;;;;;;21.75;56.47;99630.69;5072847;28;20487;-75
2022/05/12 11:08:29;;;;;;;5.70;2.67;;;;;;;22.12;54.67;99624.94;5072685;28;20442;-77
2022/05/12 11:10:59;;;;;;;4.03;2.60;;;;;;;22.59;53.65;99620.88;5071571;28;20438;-78
2022/05/12 11:13:32;;;;;;;4.33;1.80;;;;;;;22.86;52.66;99628.00;5059194;28;20437;-77
2022/05/12 11:16:01;;;;;;;4.63;2.53;;;;;;;23.49;51.51;99623.81;5066848;28;20434;-77
2022/05/12 11:18:35;;;;;;;4.97;2.40;;;;;;;24.03;49.93;99626.03;5072544;28;20435;-77
2022/05/12 11:21:12;;;;;;;7.00;2.50;;;;;;;24.39;48.51;99631.09;5072204;28;20505;-77
2022/05/12 11:23:51;;;;;;;4.30;2.40;;;;;;;24.46;46.93;99626.56;5072076;28;20418;-78
2022/05/12 11:26:35;;;;;;;4.63;2.10;;;;;;;24.05;48.53;99623.97;5065517;28;20869;-78
2022/05/12 11:32:02;;;;;;;4.83;2.57;;;;;;;24.49;47.46;99618.88;5067297;28;20433;-77
2022/05/12 11:34:30;;;;;;;4.40;2.40;;;;;;;24.40;47.60;99613.53;5070079;28;20520;-77
2022/05/12 11:37:28;;;;;;;6.90;2.27;;;;;;;24.76;45.88;99609.28;5071809;28;20443;-76
2022/05/12 11:39:57;;;;;;;4.93;2.30;;;;;;;24.47;46.24;99617.31;5071595;28;20475;-77
2022/05/12 11:42:26;;;;;;;8.83;3.90;;;;;;;24.83;45.57;99628.69;5070813;28;20455;-77
2022/05/12 11:44:59;;;;;;;6.70;2.43;;;;;;;24.98;45.18;99618.59;5071651;28;20467;-77
2022/05/12 11:48:00;;;;;;;3.07;2.30;;;;;;;24.75;44.83;99615.81;5072235;28;20435;-80
2022/05/12 11:50:52;;;;;;;4.20;2.43;;;;;;;24.04;46.88;99614.88;5072458;28;20895;-79
2022/05/12 11:53:22;;;;;;;4.33;2.00;;;;;;;24.20;46.19;99611.22;5052274;28;20435;-79
2022/05/12 11:56:11;;;;;;;7.00;2.13;;;;;;;23.91;46.62;99612.66;5052425;28;20515;-79
2022/05/12 11:58:41;;;;;;;4.77;2.50;;;;;;;24.04;46.58;99606.63;5067163;28;20462;-79
2022/05/12 12:01:11;;;;;;;4.17;1.80;;;;;;;24.53;45.30;99600.97;5071963;28;20470;-78
2022/05/12 12:03:54;;;;;;;4.23;1.77;;;;;;;23.98;46.16;99604.56;5072623;28;20901;-78
2022/05/12 12:06:43;;;;;;;4.97;2.70;;;;;;;23.80;47.58;99599.25;5071699;28;20552;-78